sensor_id;sensor_type;location;lat;lon;timestamp;temperature;humidity
46784;DHT22;32544;52.832;13.816;2024-02-14T00:00:50;22.50;50.50
46784;DHT22;32544;52.832;13.816;2024-02-14T00:01:50;22.60;50.60
46784;DHT22;32544;52.832;13.816;2024-02-14T00:02:51;22.50;50.60
46784;DHT22;32544;52.832;13.816;2024-02-14T00:03:52;22.50;50.50
46784;DHT22;32544;52.832;13.816;2024-02-14T00:04:53;22.50;50.50
46784;DHT22;32544;52.832;13.816;2024-02-14T00:05:53;22.50;51.20
46784;DHT22;32544;52.832;13.816;2024-02-14T00:06:56;22.50;50.60
46784;DHT22;32544;52.832;13.816;2024-02-14T00:07:56;22.50;50.50
46784;DHT22;32544;52.832;13.816;2024-02-14T00:08:57;22.50;50.50
46784;DHT22;32544;52.832;13.816;2024-02-14T00:09:57;22.50;50.50
46784;DHT22;32544;52.832;13.816;2024-02-14T00:10:58;22.50;50.50
46784;DHT22;32544;52.832;13.816;2024-02-14T00:11:58;22.50;50.60
46784;DHT22;32544;52.832;13.816;2024-02-14T00:12:59;22.50;50.60
46784;DHT22;32544;52.832;13.816;2024-02-14T00:13:59;22.50;50.60
46784;DHT22;32544;52.832;13.816;2024-02-14T00:15:00;22.50;50.60
46784;DHT22;32544;52.832;13.816;2024-02-14T00:16:03;22.50;50.60
46784;DHT22;32544;52.832;13.816;2024-02-14T00:17:04;22.50;50.60
46784;DHT22;32544;52.832;13.816;2024-02-14T00:18:05;22.50;50.50
46784;DHT22;32544;52.832;13.816;2024-02-14T00:19:05;22.50;50.60
46784;DHT22;32544;52.832;13.816;2024-02-14T00:20:06;22.50;50.70
46784;DHT22;32544;52.832;13.816;2024-02-14T00:21:07;22.50;50.60
46784;DHT22;32544;52.832;13.816;2024-02-14T00:22:08;22.50;50.60
46784;DHT22;32544;52.832;13.816;2024-02-14T00:23:08;22.50;50.60
46784;DHT22;32544;52.832;13.816;2024-02-14T00:24:09;22.50;50.60
46784;DHT22;32544;52.832;13.816;2024-02-14T00:25:10;22.50;51.20
46784;DHT22;32544;52.832;13.816;2024-02-14T00:26:11;22.50;50.50
46784;DHT22;32544;52.832;13.816;2024-02-14T00:27:11;22.50;50.60
46784;DHT22;32544;52.832;13.816;2024-02-14T00:28:14;22.50;50.60
46784;DHT22;32544;52.832;13.816;2024-02-14T00:29:15;22.50;50.60
46784;DHT22;32544;52.832;13.816;2024-02-14T00:30:16;22.50;50.60
46784;DHT22;32544;52.832;13.816;2024-02-14T00:31:16;22.50;50.50
46784;DHT22;32544;52.832;13.816;2024-02-14T00:32:17;22.50;50.50
46784;DHT22;32544;52.832;13.816;2024-02-14T00:33:17;22.50;50.50
46784;DHT22;32544;52.832;13.816;2024-02-14T00:34:20;22.50;50.50
46784;DHT22;32544;52.832;13.816;2024-02-14T00:35:21;22.50;50.50
46784;DHT22;32544;52.832;13.816;2024-02-14T00:36:22;22.50;50.50
46784;DHT22;32544;52.832;13.816;2024-02-14T00:37:23;22.50;50.50
46784;DHT22;32544;52.832;13.816;2024-02-14T00:38:23;22.50;50.50
46784;DHT22;32544;52.832;13.816;2024-02-14T00:39:24;22.50;50.50
46784;DHT22;32544;52.832;13.816;2024-02-14T00:40:24;22.50;50.50
46784;DHT22;32544;52.832;13.816;2024-02-14T00:41:25;22.50;50.50
46784;DHT22;32544;52.832;13.816;2024-02-14T00:42:29;22.50;50.50
46784;DHT22;32544;52.832;13.816;2024-02-14T00:43:30;22.50;50.50
46784;DHT22;32544;52.832;13.816;2024-02-14T00:44:31;22.50;50.50
46784;DHT22;32544;52.832;13.816;2024-02-14T00:45:31;22.50;50.50
46784;DHT22;32544;52.832;13.816;2024-02-14T00:46:32;22.50;50.60
46784;DHT22;32544;52.832;13.816;2024-02-14T00:47:32;22.50;50.50
46784;DHT22;32544;52.832;13.816;2024-02-14T00:48:33;22.50;50.50
46784;DHT22;32544;52.832;13.816;2024-02-14T00:49:34;22.50;50.50
46784;DHT22;32544;52.832;13.816;2024-02-14T00:50:34;22.50;50.50
46784;DHT22;32544;52.832;13.816;2024-02-14T00:51:35;22.50;50.50
46784;DHT22;32544;52.832;13.816;2024-02-14T00:52:37;22.50;50.50
46784;DHT22;32544;52.832;13.816;2024-02-14T00:53:38;22.50;50.40
46784;DHT22;32544;52.832;13.816;2024-02-14T00:54:39;22.50;50.50
46784;DHT22;32544;52.832;13.816;2024-02-14T00:55:39;22.40;50.40
46784;DHT22;32544;52.832;13.816;2024-02-14T00:56:40;22.40;50.50
46784;DHT22;32544;52.832;13.816;2024-02-14T00:57:40;22.40;50.50
46784;DHT22;32544;52.832;13.816;2024-02-14T00:58:41;22.40;50.50
46784;DHT22;32544;52.832;13.816;2024-02-14T00:59:41;22.40;50.50
46784;DHT22;32544;52.832;13.816;2024-02-14T01:00:42;22.40;50.50
46784;DHT22;32544;52.832;13.816;2024-02-14T01:01:43;22.40;50.50
46784;DHT22;32544;52.832;13.816;2024-02-14T01:02:45;22.40;50.50
46784;DHT22;32544;52.832;13.816;2024-02-14T01:03:45;22.50;50.60
46784;DHT22;32544;52.832;13.816;2024-02-14T01:04:46;22.40;50.50
46784;DHT22;32544;52.832;13.816;2024-02-14T01:05:47;22.40;50.60
46784;DHT22;32544;52.832;13.816;2024-02-14T01:06:48;22.40;50.50
46784;DHT22;32544;52.832;13.816;2024-02-14T01:07:50;22.40;50.50
46784;DHT22;32544;52.832;13.816;2024-02-14T01:08:50;22.50;50.50
46784;DHT22;32544;52.832;13.816;2024-02-14T01:09:51;22.40;50.50
46784;DHT22;32544;52.832;13.816;2024-02-14T01:10:51;22.40;50.30
46784;DHT22;32544;52.832;13.816;2024-02-14T01:11:52;22.40;50.50
46784;DHT22;32544;52.832;13.816;2024-02-14T01:12:53;22.40;50.40
46784;DHT22;32544;52.832;13.816;2024-02-14T01:13:53;22.40;50.40
46784;DHT22;32544;52.832;13.816;2024-02-14T01:14:54;22.50;50.40
46784;DHT22;32544;52.832;13.816;2024-02-14T01:15:55;22.40;50.40
46784;DHT22;32544;52.832;13.816;2024-02-14T01:16:55;22.40;50.40
46784;DHT22;32544;52.832;13.816;2024-02-14T01:17:56;22.50;50.50
46784;DHT22;32544;52.832;13.816;2024-02-14T01:18:57;22.40;50.40
46784;DHT22;32544;52.832;13.816;2024-02-14T01:19:57;22.50;50.40
46784;DHT22;32544;52.832;13.816;2024-02-14T01:20:58;22.40;50.30
46784;DHT22;32544;52.832;13.816;2024-02-14T01:22:01;22.40;50.40
46784;DHT22;32544;52.832;13.816;2024-02-14T01:23:03;22.40;50.30
46784;DHT22;32544;52.832;13.816;2024-02-14T01:24:04;22.50;50.40
46784;DHT22;32544;52.832;13.816;2024-02-14T01:25:05;22.50;50.40
46784;DHT22;32544;52.832;13.816;2024-02-14T01:26:06;22.40;50.40
46784;DHT22;32544;52.832;13.816;2024-02-14T01:27:07;22.50;50.40
46784;DHT22;32544;52.832;13.816;2024-02-14T01:28:09;22.40;50.30
46784;DHT22;32544;52.832;13.816;2024-02-14T01:29:09;22.40;50.30
46784;DHT22;32544;52.832;13.816;2024-02-14T01:30:10;22.40;50.30
46784;DHT22;32544;52.832;13.816;2024-02-14T01:31:10;22.40;50.30
46784;DHT22;32544;52.832;13.816;2024-02-14T01:32:12;22.40;50.30
46784;DHT22;32544;52.832;13.816;2024-02-14T01:33:12;22.40;50.30
46784;DHT22;32544;52.832;13.816;2024-02-14T01:34:13;22.50;50.40
46784;DHT22;32544;52.832;13.816;2024-02-14T01:35:14;22.40;50.30
46784;DHT22;32544;52.832;13.816;2024-02-14T01:36:14;22.40;50.30
46784;DHT22;32544;52.832;13.816;2024-02-14T01:37:16;22.40;50.30
46784;DHT22;32544;52.832;13.816;2024-02-14T01:38:17;22.40;50.30
46784;DHT22;32544;52.832;13.816;2024-02-14T01:39:18;22.40;50.40
46784;DHT22;32544;52.832;13.816;2024-02-14T01:40:19;22.40;50.40
46784;DHT22;32544;52.832;13.816;2024-02-14T01:41:19;22.50;50.40
46784;DHT22;32544;52.832;13.816;2024-02-14T01:42:21;22.40;50.30
46784;DHT22;32544;52.832;13.816;2024-02-14T01:43:22;22.40;50.40
46784;DHT22;32544;52.832;13.816;2024-02-14T01:44:22;22.40;50.30
46784;DHT22;32544;52.832;13.816;2024-02-14T01:45:23;22.40;50.40
46784;DHT22;32544;52.832;13.816;2024-02-14T01:46:23;22.40;50.30
46784;DHT22;32544;52.832;13.816;2024-02-14T01:47:24;22.40;50.30
46784;DHT22;32544;52.832;13.816;2024-02-14T01:48:25;22.40;50.30
46784;DHT22;32544;52.832;13.816;2024-02-14T01:49:25;22.50;50.40
46784;DHT22;32544;52.832;13.816;2024-02-14T01:50:28;22.50;50.40
46784;DHT22;32544;52.832;13.816;2024-02-14T01:51:30;22.40;50.30
46784;DHT22;32544;52.832;13.816;2024-02-14T01:52:32;22.50;50.40
46784;DHT22;32544;52.832;13.816;2024-02-14T01:53:32;22.50;50.30
46784;DHT22;32544;52.832;13.816;2024-02-14T01:54:33;22.40;50.30
46784;DHT22;32544;52.832;13.816;2024-02-14T01:55:33;22.40;50.30
46784;DHT22;32544;52.832;13.816;2024-02-14T01:56:35;22.40;50.30
46784;DHT22;32544;52.832;13.816;2024-02-14T01:57:35;22.40;51.00
46784;DHT22;32544;52.832;13.816;2024-02-14T01:58:37;22.40;50.30
46784;DHT22;32544;52.832;13.816;2024-02-14T01:59:39;22.40;50.30
46784;DHT22;32544;52.832;13.816;2024-02-14T02:00:39;22.40;50.30
46784;DHT22;32544;52.832;13.816;2024-02-14T02:01:45;22.40;50.30
46784;DHT22;32544;52.832;13.816;2024-02-14T02:02:47;22.40;50.40
46784;DHT22;32544;52.832;13.816;2024-02-14T02:03:53;22.40;50.40
46784;DHT22;32544;52.832;13.816;2024-02-14T02:04:53;22.40;50.40
46784;DHT22;32544;52.832;13.816;2024-02-14T02:05:54;22.40;50.30
46784;DHT22;32544;52.832;13.816;2024-02-14T02:06:55;22.40;50.30
46784;DHT22;32544;52.832;13.816;2024-02-14T02:07:56;22.40;50.30
46784;DHT22;32544;52.832;13.816;2024-02-14T02:08:57;22.40;50.30
46784;DHT22;32544;52.832;13.816;2024-02-14T02:09:58;22.50;50.40
46784;DHT22;32544;52.832;13.816;2024-02-14T02:10:59;22.40;50.30
46784;DHT22;32544;52.832;13.816;2024-02-14T02:12:00;22.50;50.30
46784;DHT22;32544;52.832;13.816;2024-02-14T02:13:01;22.40;50.30
46784;DHT22;32544;52.832;13.816;2024-02-14T02:14:01;22.40;50.20
46784;DHT22;32544;52.832;13.816;2024-02-14T02:15:05;22.40;50.30
46784;DHT22;32544;52.832;13.816;2024-02-14T02:16:05;22.40;50.30
46784;DHT22;32544;52.832;13.816;2024-02-14T02:17:07;22.40;50.30
46784;DHT22;32544;52.832;13.816;2024-02-14T02:18:08;22.40;50.30
46784;DHT22;32544;52.832;13.816;2024-02-14T02:19:09;22.40;50.30
46784;DHT22;32544;52.832;13.816;2024-02-14T02:20:10;22.40;50.30
46784;DHT22;32544;52.832;13.816;2024-02-14T02:21:10;22.40;50.30
46784;DHT22;32544;52.832;13.816;2024-02-14T02:22:13;22.50;50.30
46784;DHT22;32544;52.832;13.816;2024-02-14T02:23:13;22.40;50.20
46784;DHT22;32544;52.832;13.816;2024-02-14T02:24:15;22.40;50.30
46784;DHT22;32544;52.832;13.816;2024-02-14T02:25:15;22.40;50.30
46784;DHT22;32544;52.832;13.816;2024-02-14T02:26:16;22.40;50.30
46784;DHT22;32544;52.832;13.816;2024-02-14T02:27:16;22.40;50.20
46784;DHT22;32544;52.832;13.816;2024-02-14T02:28:17;22.40;50.20
46784;DHT22;32544;52.832;13.816;2024-02-14T02:29:18;22.40;50.30
46784;DHT22;32544;52.832;13.816;2024-02-14T02:30:20;22.40;50.30
46784;DHT22;32544;52.832;13.816;2024-02-14T02:31:20;22.40;50.30
46784;DHT22;32544;52.832;13.816;2024-02-14T02:32:21;22.40;50.20
46784;DHT22;32544;52.832;13.816;2024-02-14T02:33:22;22.40;50.20
46784;DHT22;32544;52.832;13.816;2024-02-14T02:34:22;22.40;50.20
46784;DHT22;32544;52.832;13.816;2024-02-14T02:35:23;22.40;50.30
46784;DHT22;32544;52.832;13.816;2024-02-14T02:36:24;22.40;50.20
46784;DHT22;32544;52.832;13.816;2024-02-14T02:37:25;22.40;50.30
46784;DHT22;32544;52.832;13.816;2024-02-14T02:38:26;22.40;50.20
46784;DHT22;32544;52.832;13.816;2024-02-14T02:39:27;22.40;50.20
46784;DHT22;32544;52.832;13.816;2024-02-14T02:40:27;22.40;50.30
46784;DHT22;32544;52.832;13.816;2024-02-14T02:41:28;22.40;50.30
46784;DHT22;32544;52.832;13.816;2024-02-14T02:42:28;22.40;50.30
46784;DHT22;32544;52.832;13.816;2024-02-14T02:43:29;22.40;50.30
46784;DHT22;32544;52.832;13.816;2024-02-14T02:44:31;22.40;50.30
46784;DHT22;32544;52.832;13.816;2024-02-14T02:45:31;22.40;50.30
46784;DHT22;32544;52.832;13.816;2024-02-14T02:46:32;22.40;50.30
46784;DHT22;32544;52.832;13.816;2024-02-14T02:47:33;22.40;50.20
46784;DHT22;32544;52.832;13.816;2024-02-14T02:48:33;22.40;50.30
46784;DHT22;32544;52.832;13.816;2024-02-14T02:49:34;22.40;50.20
46784;DHT22;32544;52.832;13.816;2024-02-14T02:50:37;22.40;50.20
46784;DHT22;32544;52.832;13.816;2024-02-14T02:51:37;22.40;50.20
46784;DHT22;32544;52.832;13.816;2024-02-14T02:52:38;22.50;50.30
46784;DHT22;32544;52.832;13.816;2024-02-14T02:53:39;22.40;50.30
46784;DHT22;32544;52.832;13.816;2024-02-14T02:54:39;22.40;50.20
46784;DHT22;32544;52.832;13.816;2024-02-14T02:55:44;22.40;50.20
46784;DHT22;32544;52.832;13.816;2024-02-14T02:56:44;22.40;50.30
46784;DHT22;32544;52.832;13.816;2024-02-14T02:57:45;22.50;50.30
46784;DHT22;32544;52.832;13.816;2024-02-14T02:58:46;22.40;50.20
46784;DHT22;32544;52.832;13.816;2024-02-14T02:59:48;22.40;50.30
46784;DHT22;32544;52.832;13.816;2024-02-14T03:00:49;22.40;50.30
46784;DHT22;32544;52.832;13.816;2024-02-14T03:01:50;22.40;50.30
46784;DHT22;32544;52.832;13.816;2024-02-14T03:02:51;22.40;50.30
46784;DHT22;32544;52.832;13.816;2024-02-14T03:03:51;22.40;50.30
46784;DHT22;32544;52.832;13.816;2024-02-14T03:04:52;22.40;50.20
46784;DHT22;32544;52.832;13.816;2024-02-14T03:05:53;22.40;50.90
46784;DHT22;32544;52.832;13.816;2024-02-14T03:06:55;22.40;50.20
46784;DHT22;32544;52.832;13.816;2024-02-14T03:07:56;22.40;50.30
46784;DHT22;32544;52.832;13.816;2024-02-14T03:08:58;22.40;50.20
46784;DHT22;32544;52.832;13.816;2024-02-14T03:09:59;22.40;50.20
46784;DHT22;32544;52.832;13.816;2024-02-14T03:11:04;22.40;50.20
46784;DHT22;32544;52.832;13.816;2024-02-14T03:12:04;22.40;50.10
46784;DHT22;32544;52.832;13.816;2024-02-14T03:13:05;22.40;50.20
46784;DHT22;32544;52.832;13.816;2024-02-14T03:14:06;22.40;50.10
46784;DHT22;32544;52.832;13.816;2024-02-14T03:15:08;22.40;50.20
46784;DHT22;32544;52.832;13.816;2024-02-14T03:16:10;22.40;50.20
46784;DHT22;32544;52.832;13.816;2024-02-14T03:17:11;22.40;50.20
46784;DHT22;32544;52.832;13.816;2024-02-14T03:18:12;22.40;50.30
46784;DHT22;32544;52.832;13.816;2024-02-14T03:19:13;22.40;50.20
46784;DHT22;32544;52.832;13.816;2024-02-14T03:20:13;22.40;50.20
46784;DHT22;32544;52.832;13.816;2024-02-14T03:21:14;22.40;50.20
46784;DHT22;32544;52.832;13.816;2024-02-14T03:22:14;22.40;50.30
46784;DHT22;32544;52.832;13.816;2024-02-14T03:23:15;22.40;50.30
46784;DHT22;32544;52.832;13.816;2024-02-14T03:24:16;22.40;50.30
46784;DHT22;32544;52.832;13.816;2024-02-14T03:25:17;22.40;50.20
46784;DHT22;32544;52.832;13.816;2024-02-14T03:26:18;22.40;50.20
46784;DHT22;32544;52.832;13.816;2024-02-14T03:27:18;22.40;50.40
46784;DHT22;32544;52.832;13.816;2024-02-14T03:28:19;22.40;50.20
46784;DHT22;32544;52.832;13.816;2024-02-14T03:29:20;22.40;50.10
46784;DHT22;32544;52.832;13.816;2024-02-14T03:30:21;22.40;50.10
46784;DHT22;32544;52.832;13.816;2024-02-14T03:31:22;22.40;50.20
46784;DHT22;32544;52.832;13.816;2024-02-14T03:32:23;22.40;50.20
46784;DHT22;32544;52.832;13.816;2024-02-14T03:33:23;22.40;50.20
46784;DHT22;32544;52.832;13.816;2024-02-14T03:34:25;22.40;50.10
46784;DHT22;32544;52.832;13.816;2024-02-14T03:35:25;22.40;50.20
46784;DHT22;32544;52.832;13.816;2024-02-14T03:36:27;22.40;50.20
46784;DHT22;32544;52.832;13.816;2024-02-14T03:37:31;22.40;50.10
46784;DHT22;32544;52.832;13.816;2024-02-14T03:38:32;22.40;50.10
46784;DHT22;32544;52.832;13.816;2024-02-14T03:39:32;22.40;50.10
46784;DHT22;32544;52.832;13.816;2024-02-14T03:40:33;22.40;50.10
46784;DHT22;32544;52.832;13.816;2024-02-14T03:41:33;22.40;50.10
46784;DHT22;32544;52.832;13.816;2024-02-14T03:42:34;22.40;50.10
46784;DHT22;32544;52.832;13.816;2024-02-14T03:43:35;22.40;50.10
46784;DHT22;32544;52.832;13.816;2024-02-14T03:44:35;22.40;50.10
46784;DHT22;32544;52.832;13.816;2024-02-14T03:45:38;22.40;50.10
46784;DHT22;32544;52.832;13.816;2024-02-14T03:46:38;22.40;50.10
46784;DHT22;32544;52.832;13.816;2024-02-14T03:47:39;22.40;50.10
46784;DHT22;32544;52.832;13.816;2024-02-14T03:48:40;22.40;50.10
46784;DHT22;32544;52.832;13.816;2024-02-14T03:49:42;22.40;50.10
46784;DHT22;32544;52.832;13.816;2024-02-14T03:50:42;22.40;50.10
46784;DHT22;32544;52.832;13.816;2024-02-14T03:51:43;22.40;50.10
46784;DHT22;32544;52.832;13.816;2024-02-14T03:52:43;22.40;50.20
46784;DHT22;32544;52.832;13.816;2024-02-14T03:53:44;22.40;50.20
46784;DHT22;32544;52.832;13.816;2024-02-14T03:54:45;22.40;50.10
46784;DHT22;32544;52.832;13.816;2024-02-14T03:55:45;22.40;50.10
46784;DHT22;32544;52.832;13.816;2024-02-14T03:56:46;22.40;50.30
46784;DHT22;32544;52.832;13.816;2024-02-14T03:57:46;22.40;50.10
46784;DHT22;32544;52.832;13.816;2024-02-14T03:58:48;22.40;50.10
46784;DHT22;32544;52.832;13.816;2024-02-14T03:59:48;22.40;50.10
46784;DHT22;32544;52.832;13.816;2024-02-14T04:00:52;22.40;50.00
46784;DHT22;32544;52.832;13.816;2024-02-14T04:01:53;22.40;50.00
46784;DHT22;32544;52.832;13.816;2024-02-14T04:02:53;22.40;50.00
46784;DHT22;32544;52.832;13.816;2024-02-14T04:03:59;22.40;50.00
46784;DHT22;32544;52.832;13.816;2024-02-14T04:04:59;22.40;50.00
46784;DHT22;32544;52.832;13.816;2024-02-14T04:06:00;22.40;50.00
46784;DHT22;32544;52.832;13.816;2024-02-14T04:07:01;22.40;50.00
46784;DHT22;32544;52.832;13.816;2024-02-14T04:08:02;22.40;50.00
46784;DHT22;32544;52.832;13.816;2024-02-14T04:09:03;22.40;50.00
46784;DHT22;32544;52.832;13.816;2024-02-14T04:10:05;22.40;50.10
46784;DHT22;32544;52.832;13.816;2024-02-14T04:11:05;22.40;50.00
46784;DHT22;32544;52.832;13.816;2024-02-14T04:12:06;22.40;50.00
46784;DHT22;32544;52.832;13.816;2024-02-14T04:13:07;22.40;50.00
46784;DHT22;32544;52.832;13.816;2024-02-14T04:14:07;22.40;50.00
46784;DHT22;32544;52.832;13.816;2024-02-14T04:15:08;22.40;50.00
46784;DHT22;32544;52.832;13.816;2024-02-14T04:16:09;22.40;50.00
46784;DHT22;32544;52.832;13.816;2024-02-14T04:17:10;22.40;50.00
46784;DHT22;32544;52.832;13.816;2024-02-14T04:18:13;22.40;50.00
46784;DHT22;32544;52.832;13.816;2024-02-14T04:19:14;22.40;50.00
46784;DHT22;32544;52.832;13.816;2024-02-14T04:20:17;22.40;50.00
46784;DHT22;32544;52.832;13.816;2024-02-14T04:21:18;22.40;50.00
46784;DHT22;32544;52.832;13.816;2024-02-14T04:22:18;22.50;50.00
46784;DHT22;32544;52.832;13.816;2024-02-14T04:23:19;22.40;50.00
46784;DHT22;32544;52.832;13.816;2024-02-14T04:24:20;22.40;50.00
46784;DHT22;32544;52.832;13.816;2024-02-14T04:25:21;22.40;50.00
46784;DHT22;32544;52.832;13.816;2024-02-14T04:26:23;22.40;50.00
46784;DHT22;32544;52.832;13.816;2024-02-14T04:27:23;22.40;50.00
46784;DHT22;32544;52.832;13.816;2024-02-14T04:28:24;22.50;50.00
46784;DHT22;32544;52.832;13.816;2024-02-14T04:29:24;22.40;50.00
46784;DHT22;32544;52.832;13.816;2024-02-14T04:30:25;22.40;50.00
46784;DHT22;32544;52.832;13.816;2024-02-14T04:31:25;22.40;50.00
46784;DHT22;32544;52.832;13.816;2024-02-14T04:32:27;22.50;50.00
46784;DHT22;32544;52.832;13.816;2024-02-14T04:33:27;22.40;50.00
46784;DHT22;32544;52.832;13.816;2024-02-14T04:34:28;22.40;50.00
46784;DHT22;32544;52.832;13.816;2024-02-14T04:35:28;22.40;50.00
46784;DHT22;32544;52.832;13.816;2024-02-14T04:36:29;22.40;50.00
46784;DHT22;32544;52.832;13.816;2024-02-14T04:37:30;22.40;50.00
46784;DHT22;32544;52.832;13.816;2024-02-14T04:38:31;22.40;50.00
46784;DHT22;32544;52.832;13.816;2024-02-14T04:39:31;22.40;50.00
46784;DHT22;32544;52.832;13.816;2024-02-14T04:40:32;22.40;50.00
46784;DHT22;32544;52.832;13.816;2024-02-14T04:41:32;22.40;50.00
46784;DHT22;32544;52.832;13.816;2024-02-14T04:42:37;22.40;50.00
46784;DHT22;32544;52.832;13.816;2024-02-14T04:43:38;22.50;50.00
46784;DHT22;32544;52.832;13.816;2024-02-14T04:44:39;22.40;50.00
46784;DHT22;32544;52.832;13.816;2024-02-14T04:45:39;22.40;50.00
46784;DHT22;32544;52.832;13.816;2024-02-14T04:46:40;22.40;50.00
46784;DHT22;32544;52.832;13.816;2024-02-14T04:47:43;22.40;50.00
46784;DHT22;32544;52.832;13.816;2024-02-14T04:48:44;22.40;49.90
46784;DHT22;32544;52.832;13.816;2024-02-14T04:49:45;22.40;49.90
46784;DHT22;32544;52.832;13.816;2024-02-14T04:50:45;22.40;49.90
46784;DHT22;32544;52.832;13.816;2024-02-14T04:51:46;22.40;49.80
46784;DHT22;32544;52.832;13.816;2024-02-14T04:52:46;22.40;49.90
46784;DHT22;32544;52.832;13.816;2024-02-14T04:53:47;22.40;49.80
46784;DHT22;32544;52.832;13.816;2024-02-14T04:54:48;22.50;49.90
46784;DHT22;32544;52.832;13.816;2024-02-14T04:55:48;22.40;49.90
46784;DHT22;32544;52.832;13.816;2024-02-14T04:56:49;22.40;49.90
46784;DHT22;32544;52.832;13.816;2024-02-14T04:57:49;22.40;50.60
46784;DHT22;32544;52.832;13.816;2024-02-14T04:58:50;22.40;50.00
46784;DHT22;32544;52.832;13.816;2024-02-14T04:59:50;22.40;49.90
46784;DHT22;32544;52.832;13.816;2024-02-14T05:00:51;22.40;50.00
46784;DHT22;32544;52.832;13.816;2024-02-14T05:01:52;22.40;49.90
46784;DHT22;32544;52.832;13.816;2024-02-14T05:02:54;22.40;49.90
46784;DHT22;32544;52.832;13.816;2024-02-14T05:03:55;22.40;50.00
46784;DHT22;32544;52.832;13.816;2024-02-14T05:04:55;22.40;49.90
46784;DHT22;32544;52.832;13.816;2024-02-14T05:05:56;22.40;49.90
46784;DHT22;32544;52.832;13.816;2024-02-14T05:06:58;22.50;49.90
46784;DHT22;32544;52.832;13.816;2024-02-14T05:07:59;22.40;49.80
46784;DHT22;32544;52.832;13.816;2024-02-14T05:08:59;22.40;49.90
46784;DHT22;32544;52.832;13.816;2024-02-14T05:10:00;22.40;49.90
46784;DHT22;32544;52.832;13.816;2024-02-14T05:11:01;22.40;49.80
46784;DHT22;32544;52.832;13.816;2024-02-14T05:12:01;22.40;49.90
46784;DHT22;32544;52.832;13.816;2024-02-14T05:13:04;22.40;49.80
46784;DHT22;32544;52.832;13.816;2024-02-14T05:14:05;22.40;49.80
46784;DHT22;32544;52.832;13.816;2024-02-14T05:15:05;22.40;49.80
46784;DHT22;32544;52.832;13.816;2024-02-14T05:16:06;22.40;49.80
46784;DHT22;32544;52.832;13.816;2024-02-14T05:17:08;22.40;49.90
46784;DHT22;32544;52.832;13.816;2024-02-14T05:18:08;22.50;50.00
46784;DHT22;32544;52.832;13.816;2024-02-14T05:19:10;22.40;49.80
46784;DHT22;32544;52.832;13.816;2024-02-14T05:20:11;22.40;49.80
46784;DHT22;32544;52.832;13.816;2024-02-14T05:21:11;22.40;49.80
46784;DHT22;32544;52.832;13.816;2024-02-14T05:22:12;22.40;49.80
46784;DHT22;32544;52.832;13.816;2024-02-14T05:23:12;22.40;49.80
46784;DHT22;32544;52.832;13.816;2024-02-14T05:24:13;22.40;49.90
46784;DHT22;32544;52.832;13.816;2024-02-14T05:25:14;22.40;49.80
46784;DHT22;32544;52.832;13.816;2024-02-14T05:26:14;22.40;49.90
46784;DHT22;32544;52.832;13.816;2024-02-14T05:27:15;22.40;49.90
46784;DHT22;32544;52.832;13.816;2024-02-14T05:28:15;22.40;49.90
46784;DHT22;32544;52.832;13.816;2024-02-14T05:29:18;22.40;49.90
46784;DHT22;32544;52.832;13.816;2024-02-14T05:30:20;22.40;49.90
46784;DHT22;32544;52.832;13.816;2024-02-14T05:31:21;22.40;49.90
46784;DHT22;32544;52.832;13.816;2024-02-14T05:32:22;22.40;49.80
46784;DHT22;32544;52.832;13.816;2024-02-14T05:33:24;22.40;49.90
46784;DHT22;32544;52.832;13.816;2024-02-14T05:34:24;22.40;49.90
46784;DHT22;32544;52.832;13.816;2024-02-14T05:35:25;22.40;49.90
46784;DHT22;32544;52.832;13.816;2024-02-14T05:36:25;22.40;49.90
46784;DHT22;32544;52.832;13.816;2024-02-14T05:37:26;22.40;49.90
46784;DHT22;32544;52.832;13.816;2024-02-14T05:38:29;22.40;49.90
46784;DHT22;32544;52.832;13.816;2024-02-14T05:39:30;22.40;49.90
46784;DHT22;32544;52.832;13.816;2024-02-14T05:40:31;22.40;49.90
46784;DHT22;32544;52.832;13.816;2024-02-14T05:41:31;22.40;49.90
46784;DHT22;32544;52.832;13.816;2024-02-14T05:42:33;22.40;49.80
46784;DHT22;32544;52.832;13.816;2024-02-14T05:43:34;22.40;49.90
46784;DHT22;32544;52.832;13.816;2024-02-14T05:44:35;22.40;49.80
46784;DHT22;32544;52.832;13.816;2024-02-14T05:45:36;22.40;49.80
46784;DHT22;32544;52.832;13.816;2024-02-14T05:46:36;22.40;49.80
46784;DHT22;32544;52.832;13.816;2024-02-14T05:47:37;22.40;49.80
46784;DHT22;32544;52.832;13.816;2024-02-14T05:48:38;22.40;49.80
46784;DHT22;32544;52.832;13.816;2024-02-14T05:49:39;22.40;49.80
46784;DHT22;32544;52.832;13.816;2024-02-14T05:50:40;22.40;49.90
46784;DHT22;32544;52.832;13.816;2024-02-14T05:51:41;22.40;49.90
46784;DHT22;32544;52.832;13.816;2024-02-14T05:52:41;22.40;49.80
46784;DHT22;32544;52.832;13.816;2024-02-14T05:53:42;22.40;49.80
46784;DHT22;32544;52.832;13.816;2024-02-14T05:54:42;22.40;49.80
46784;DHT22;32544;52.832;13.816;2024-02-14T05:55:43;22.40;49.80
46784;DHT22;32544;52.832;13.816;2024-02-14T05:56:43;22.40;49.70
46784;DHT22;32544;52.832;13.816;2024-02-14T05:57:45;22.40;49.70
46784;DHT22;32544;52.832;13.816;2024-02-14T05:58:45;22.40;49.80
46784;DHT22;32544;52.832;13.816;2024-02-14T05:59:46;22.40;49.80
46784;DHT22;32544;52.832;13.816;2024-02-14T06:00:46;22.40;49.80
46784;DHT22;32544;52.832;13.816;2024-02-14T06:01:47;22.40;49.90
46784;DHT22;32544;52.832;13.816;2024-02-14T06:02:47;22.40;49.80
46784;DHT22;32544;52.832;13.816;2024-02-14T06:03:48;22.50;49.90
46784;DHT22;32544;52.832;13.816;2024-02-14T06:04:49;22.40;49.80
46784;DHT22;32544;52.832;13.816;2024-02-14T06:05:49;22.40;49.80
46784;DHT22;32544;52.832;13.816;2024-02-14T06:06:50;22.40;49.80
46784;DHT22;32544;52.832;13.816;2024-02-14T06:07:50;22.40;49.80
46784;DHT22;32544;52.832;13.816;2024-02-14T06:08:51;22.40;49.80
46784;DHT22;32544;52.832;13.816;2024-02-14T06:09:52;22.50;49.80
46784;DHT22;32544;52.832;13.816;2024-02-14T06:10:52;22.40;49.90
46784;DHT22;32544;52.832;13.816;2024-02-14T06:11:53;22.40;49.90
46784;DHT22;32544;52.832;13.816;2024-02-14T06:12:54;22.40;49.80
46784;DHT22;32544;52.832;13.816;2024-02-14T06:13:54;22.40;49.80
46784;DHT22;32544;52.832;13.816;2024-02-14T06:14:55;22.40;49.90
46784;DHT22;32544;52.832;13.816;2024-02-14T06:15:55;22.40;49.80
46784;DHT22;32544;52.832;13.816;2024-02-14T06:16:56;22.40;49.80
46784;DHT22;32544;52.832;13.816;2024-02-14T06:17:57;22.40;49.80
46784;DHT22;32544;52.832;13.816;2024-02-14T06:18:57;22.40;49.80